M I D A S
Marine Information and Data Acquisition System
Tripno 592 of the Zeeleeuw from 2003-09-17 06:21:40 to 2003-09-17 11:50:16
Back to CruiseResearch ActivitiesStationsMapUnderway DataData graphs

EquipmentUnitsComments
TimeDGPSUTC
LatitudeDGPSDM.mWGS84
LongitudeDGPSDM.mWGS84
SpeedMeteo Stationm/sRelative wind speed
DirectionMeteo StationdegRelative wind direction
TemperatureMeteo Stationdeg CelciusAir temperature
PressureMeteo StationPaAtmospheric pressure
HumidityMeteo Station%Relative humidity
Missing or incorrect values are displayed as -999
Metereological data collected by the RV Zeeleeuw from 2003-09-17 06:21:40 to 2003-09-17 11:50:16
Time Latitude Longitude Speed Direction Temperature Pressure Humidity
2003-09-17 06:22 51°13.84 2°55.62 1.3 346 14.2 102270 82
2003-09-17 06:23 51°13.95 2°55.54 0.9 8 14.2 102260 82
2003-09-17 06:24 51°14.07 2°55.46 1 355 14.4 102260 82
2003-09-17 06:25 51°14.2 2°55.35 2.5 334 14.5 102260 82
2003-09-17 06:26 51°14.33 2°55.14 4.8 332 14.6 102260 82
2003-09-17 06:27 51°14.44 2°54.89 7.7 306 14.8 102250 81
2003-09-17 06:28 51°14.47 2°54.58 10.8 334 15.1 102240 80
2003-09-17 06:29 51°14.37 2°54.28 10.6 341 15.4 102220 78
2003-09-17 06:30 51°14.27 2°53.97 10.8 337 15.6 102230 77
2003-09-17 06:31 51°14.17 2°53.66 11.3 338 15.6 102230 76
2003-09-17 06:32 51°14.07 2°53.33 10.8 339 15.7 102220 76
2003-09-17 06:33 51°13.96 2°53.02 10.9 336 15.7 102230 75
2003-09-17 06:34 51°13.86 2°52.71 9.6 340 15.7 102220 75
2003-09-17 06:35 51°13.76 2°52.39 10.9 338 15.7 102230 75
2003-09-17 06:36 51°13.65 2°52.08 10.3 336 15.6 102230 76
2003-09-17 06:37 51°13.54 2°51.76 9.5 343 15.5 102230 76
2003-09-17 06:38 51°13.44 2°51.44 10.1 340 15.3 102230 76
2003-09-17 06:39 51°13.33 2°51.11 9.1 341 15.1 102230 78
2003-09-17 06:40 51°13.23 2°50.8 9.2 347 15 102230 79
2003-09-17 06:41 51°13.12 2°50.48 8.6 346 14.8 102230 79
2003-09-17 06:42 51°13.02 2°50.16 9.1 348 14.7 102230 80
2003-09-17 06:43 51°12.91 2°49.85 8.9 349 14.6 102230 80
2003-09-17 06:44 51°12.8 2°49.54 9.1 342 14.4 102230 81
2003-09-17 06:45 51°12.69 2°49.22 9 350 14.3 102240 81
2003-09-17 06:46 51°12.59 2°48.89 8.6 349 14.2 102240 82
2003-09-17 06:47 51°12.49 2°48.57 7.2 351 14.2 102240 82
2003-09-17 06:48 51°12.39 2°48.24 8.3 347 14.4 102240 83
2003-09-17 06:49 51°12.29 2°47.91 9.1 349 14.6 102240 83
2003-09-17 06:50 51°12.19 2°47.55 8.8 349 14.8 102240 82
2003-09-17 06:51 51°12.11 2°47.22 8.7 342 14.8 102240 82
2003-09-17 06:52 51°12.02 2°46.89 8.7 341 14.9 102230 81
2003-09-17 06:53 51°11.93 2°46.56 9 334 14.8 102230 81
2003-09-17 06:54 51°11.84 2°46.23 8.6 335 14.6 102220 80
2003-09-17 06:55 51°11.75 2°45.89 8.7 340 14.6 102240 82
2003-09-17 06:56 51°11.66 2°45.56 8.6 345 14.7 102240 82
2003-09-17 06:57 51°11.57 2°45.23 8.7 342 14.8 102240 82
2003-09-17 06:58 51°11.48 2°44.89 7.9 352 14.7 102250 82
2003-09-17 06:59 51°11.38 2°44.56 7.7 349 14.7 102240 82
2003-09-17 07:00 51°11.29 2°44.22 8 347 14.8 102240 82
2003-09-17 07:01 51°11.2 2°43.89 8.4 346 14.9 102240 82
2003-09-17 07:02 51°11.12 2°43.55 7.1 347 14.9 102250 81
2003-09-17 07:03 51°11.02 2°43.22 7.7 350 15 102250 81
2003-09-17 07:04 51°10.92 2°42.89 8 346 15.1 102240 82
2003-09-17 07:05 51°10.82 2°42.56 7.9 346 15.1 102240 81
2003-09-17 07:06 51°10.72 2°42.23 7.9 349 15.2 102250 80
2003-09-17 07:07 51°10.62 2°41.9 7.8 348 15.3 102240 80
2003-09-17 07:08 51°10.52 2°41.57 8 346 15.4 102240 80
2003-09-17 07:09 51°10.42 2°41.24 8.4 343 15.4 102230 79
2003-09-17 07:10 51°10.33 2°40.91 8.2 340 15.4 102230 79
2003-09-17 07:11 51°10.23 2°40.57 7.1 347 15.4 102240 79
2003-09-17 07:12 51°10.13 2°40.24 8 339 15.4 102240 79
2003-09-17 07:13 51°10 2°39.93 8.3 336 15.4 102230 79
2003-09-17 07:14 51°9.88 2°39.61 8.5 337 15.4 102230 79
2003-09-17 07:15 51°9.76 2°39.29 9.6 333 15.4 102230 79
2003-09-17 07:16 51°9.65 2°38.96 10 335 15.5 102230 79
2003-09-17 07:17 51°9.53 2°38.64 9.5 333 15.6 102230 79
2003-09-17 07:18 51°9.42 2°38.31 8.4 337 15.7 102230 78
2003-09-17 07:19 51°9.3 2°37.99 9.7 337 15.7 102220 78
2003-09-17 07:20 51°9.19 2°37.66 9.2 334 15.6 102220 78
2003-09-17 07:21 51°9.14 2°37.42 4.2 289 15.6 102230 78
2003-09-17 07:22 51°9.16 2°37.28 1.9 254 15.6 102240 78
2003-09-17 07:23 51°9.16 2°37.24 4.4 236 15.6 102250 78
2003-09-17 07:24 51°9.16 2°37.23 4.2 238 15.6 102250 79
2003-09-17 07:25 51°9.16 2°37.21 2.4 255 15.6 102250 79
2003-09-17 07:26 51°9.17 2°37.19 3 257 15.6 102250 80
2003-09-17 07:27 51°9.17 2°37.16 2.3 255 15.7 102240 80
2003-09-17 07:28 51°9.17 2°37.13 4.2 303 15.8 102250 81
2003-09-17 07:29 51°9.13 2°37.08 5 2 15.9 102240 80
2003-09-17 07:31 51°9.09 2°37.12 4.2 60 15.9 102240 80
2003-09-17 07:32 51°9.1 2°37.18 3.4 104 16 102250 79
2003-09-17 07:33 51°9.11 2°37.19 3.3 95 16 102250 79
2003-09-17 07:34 51°9.12 2°37.2 3 94 16.1 102250 79
2003-09-17 07:35 51°9.12 2°37.2 3.1 88 16.1 102250 79
2003-09-17 07:36 51°9.12 2°37.21 2.4 77 16.1 102250 79
2003-09-17 07:37 51°9.13 2°37.21 2.8 79 16.1 102250 79
2003-09-17 07:38 51°9.13 2°37.2 2.3 79 16 102250 79
2003-09-17 07:39 51°9.13 2°37.2 3.1 84 16 102250 79
2003-09-17 07:40 51°9.13 2°37.2 2.6 81 16 102250 79
2003-09-17 07:41 51°9.13 2°37.19 2.6 78 16 102250 79
2003-09-17 07:42 51°9.13 2°37.18 2.5 72 16 102250 79
2003-09-17 07:43 51°9.13 2°37.18 2.4 78 16 102250 79
2003-09-17 07:44 51°9.13 2°37.17 2.1 76 16.1 102250 79
2003-09-17 07:45 51°9.13 2°37.16 2.2 72 16.1 102250 79
2003-09-17 07:46 51°9.13 2°37.15 2.5 68 16.2 102250 79
2003-09-17 07:47 51°9.13 2°37.15 2.6 77 16.2 102250 79
2003-09-17 07:48 51°9.13 2°37.14 2.5 69 16.3 102250 79
2003-09-17 07:49 51°9.13 2°37.15 2.8 47 16.2 102250 78
2003-09-17 07:50 51°9.12 2°37.17 3.3 29 16.3 102250 78
2003-09-17 07:51 51°9.1 2°37.18 3.1 22 16.3 102250 77
2003-09-17 07:52 51°9.08 2°37.18 3 17 16.3 102250 77
2003-09-17 07:53 51°9.05 2°37.17 3.1 4 16.5 102260 77
2003-09-17 07:54 51°9.03 2°37.16 3 341 16.6 102250 77
2003-09-17 07:55 51°9 2°37.12 3.1 329 16.7 102250 77
2003-09-17 07:56 51°8.96 2°37.04 4.9 326 16.8 102250 76
2003-09-17 07:57 51°8.93 2°36.74 7.1 336 16.8 102250 75
2003-09-17 07:58 51°8.92 2°36.38 8 332 16.9 102250 74
2003-09-17 07:59 51°8.91 2°36.02 7.2 335 17 102250 73
2003-09-17 08:00 51°8.89 2°35.66 8.9 330 17.1 102250 73
2003-09-17 08:01 51°8.84 2°35.31 9.2 326 17.2 102240 72
2003-09-17 08:02 51°8.8 2°34.95 8.4 327 17.1 102240 71
2003-09-17 08:03 51°8.73 2°34.61 8.4 326 17.1 102230 72
2003-09-17 08:04 51°8.63 2°34.28 9.5 337 17.2 102230 72
2003-09-17 08:05 51°8.52 2°33.97 10 332 17.2 102230 72
2003-09-17 08:06 51°8.41 2°33.66 10.6 332 17.3 102230 71
2003-09-17 08:07 51°8.29 2°33.36 8.6 331 17.4 102230 71
2003-09-17 08:08 51°8.21 2°33.2 8.4 334 17.5 102240 70
2003-09-17 08:09 51°8.14 2°33.09 6.9 330 17.4 102240 70
2003-09-17 08:10 51°8.08 2°33.01 6.1 329 17.5 102240 70
2003-09-17 08:11 51°8.07 2°32.97 5.2 227 17.5 102250 70
2003-09-17 08:12 51°8.06 2°32.95 4.9 309 17.5 102250 71
2003-09-17 08:13 51°8.07 2°32.93 4.8 292 17.5 102250 71
2003-09-17 08:14 51°8.08 2°32.93 5.9 279 17.6 102250 71
2003-09-17 08:15 51°8.08 2°32.92 5.5 259 17.5 102250 71
2003-09-17 08:16 51°8.08 2°32.91 4.5 257 17.5 102250 72
2003-09-17 08:17 51°8.08 2°32.89 5.4 262 17.5 102250 72
2003-09-17 08:18 51°8.08 2°32.87 3.6 255 17.6 102250 72
2003-09-17 08:19 51°8.08 2°32.84 4.3 259 17.5 102250 72
2003-09-17 08:20 51°8.08 2°32.81 4.3 257 17.5 102250 72
2003-09-17 08:21 51°8.07 2°32.78 5.3 270 17.5 102260 72
2003-09-17 08:22 51°8.03 2°32.71 7.4 358 17.5 102250 72
2003-09-17 08:23 51°7.98 2°32.76 4.6 75 17.4 102240 71
2003-09-17 08:24 51°8.02 2°32.87 6.4 87 17.5 102250 72
2003-09-17 08:25 51°8.08 2°33 5 90 17.5 102250 71
2003-09-17 08:26 51°8.1 2°33.01 4.7 121 17.6 102260 71
2003-09-17 08:27 51°8.1 2°33.01 4.2 114 17.6 102260 71
2003-09-17 08:28 51°8.11 2°33.01 5.3 101 17.8 102260 71
2003-09-17 08:29 51°8.11 2°33 4.6 101 17.8 102260 72
2003-09-17 08:30 51°8.11 2°32.99 4.3 105 17.9 102270 71
2003-09-17 08:31 51°8.11 2°32.98 4.8 110 17.9 102270 72
2003-09-17 08:32 51°8.11 2°32.97 5.1 106 17.9 102270 70
2003-09-17 08:33 51°8.11 2°32.98 5.7 86 17.9 102270 70
2003-09-17 08:34 51°8.1 2°32.99 4.7 71 18 102270 70
2003-09-17 08:35 51°8.09 2°33 5.3 58 17.9 102270 70
2003-09-17 08:36 51°8.07 2°33.01 5.8 40 17.9 102260 69
2003-09-17 08:37 51°8.04 2°33.02 5.3 24 17.8 102260 70
2003-09-17 08:38 51°8.01 2°33.02 5.8 9 17.9 102260 70
2003-09-17 08:39 51°7.96 2°32.97 7.2 324 18 102260 70
2003-09-17 08:40 51°7.95 2°32.69 5.6 318 18.1 102250 70
2003-09-17 08:41 51°8.11 2°32.47 1.9   18.1 102270 70
2003-09-17 08:42 51°8.29 2°32.29 2.6 345 18.2 102270 70
2003-09-17 08:43 51°8.45 2°32.29 4.2 86 18.2 102270 70
2003-09-17 08:44 51°8.51 2°32.34 4.4 127 18.2 102260 70
2003-09-17 08:45 51°8.52 2°32.34 4.4 116 18.2 102270 70
2003-09-17 08:46 51°8.53 2°32.35 4.5 107 18.3 102270 71
2003-09-17 08:47 51°8.53 2°32.35 4.7 104 18.3 102260 71
2003-09-17 08:48 51°8.53 2°32.35 5.3 97 18.3 102260 71
2003-09-17 08:49 51°8.53 2°32.34 4.5 97 18.3 102260 71
2003-09-17 08:50 51°8.53 2°32.34 5.3 88 18.4 102260 71
2003-09-17 08:51 51°8.52 2°32.33 4.9 79 18.4 102260 72
2003-09-17 08:52 51°8.52 2°32.32 4.5 74 18.3 102260 71
2003-09-17 08:53 51°8.51 2°32.31 4.7 65 18.3 102260 71
2003-09-17 08:54 51°8.51 2°32.29 4.8 66 18.3 102250 70
2003-09-17 08:55 51°8.5 2°32.28 5.1 64 18.3 102260 71
2003-09-17 08:56 51°8.49 2°32.27 4.7 71 18.3 102260 71
2003-09-17 08:57 51°8.48 2°32.27 5.2 82 18.3 102250 70
2003-09-17 08:58 51°8.48 2°32.28 5.1 100 18.4 102260 71
2003-09-17 08:59 51°8.48 2°32.28 4.9 118 18.4 102260 70
2003-09-17 09:00 51°8.48 2°32.28 4.6 122 18.5 102260 70
2003-09-17 09:01 51°8.49 2°32.28 4.6 114 18.6 102260 70
2003-09-17 09:02 51°8.49 2°32.28 4.7 107 18.7 102260 70
2003-09-17 09:03 51°8.49 2°32.28 4.8 92 18.7 102260 70
2003-09-17 09:04 51°8.48 2°32.3 5.1 89 18.8 102260 70
2003-09-17 09:05 51°8.48 2°32.32 4.4 77 18.8 102260 70
2003-09-17 09:06 51°8.47 2°32.34 3.9 75 18.8 102260 70
2003-09-17 09:07 51°8.46 2°32.36 4.7 64 18.8 102260 71
2003-09-17 09:08 51°8.45 2°32.38 4.3 68 18.8 102260 70
2003-09-17 09:09 51°8.43 2°32.39 4.6 68 18.8 102260 71
2003-09-17 09:10 51°8.42 2°32.4 5 61 18.8 102250 70
2003-09-17 09:11 51°8.47 2°32.49 2.6 44 18.8 102250 70
2003-09-17 09:12 51°8.66 2°32.53 2.9 43 18.8 102260 70
2003-09-17 09:13 51°8.85 2°32.54 3.4 52 18.8 102260 69
2003-09-17 09:14 51°9 2°32.56 2.1 138 18.9 102260 69
2003-09-17 09:15 51°9.06 2°32.6 4.5 90 19 102260 69
2003-09-17 09:16 51°9.08 2°32.65 4.2 99 19.1 102260 71
2003-09-17 09:17 51°9.09 2°32.67 4.4 106 19.1 102260 70
2003-09-17 09:18 51°9.09 2°32.68 4.6 106 19.1 102260 69
2003-09-17 09:19 51°9.09 2°32.69 4.7 98 19.2 102250 69
2003-09-17 09:20 51°9.09 2°32.69 4.2 92 19.2 102260 68
2003-09-17 09:21 51°9.08 2°32.69 4.5 94 19.3 102260 68
2003-09-17 09:22 51°9.08 2°32.68 4.2 96 19.3 102260 68
2003-09-17 09:23 51°9.07 2°32.67 4 90 19.3 102250 69
2003-09-17 09:24 51°9.07 2°32.66 4.1 88 19.4 102260 69
2003-09-17 09:25 51°9.07 2°32.66 3.4 102 19.4 102260 70
2003-09-17 09:26 51°9.07 2°32.67 3.5 97 19.4 102260 70
2003-09-17 09:27 51°9.07 2°32.68 3.6 96 19.4 102260 70
2003-09-17 09:28 51°9.07 2°32.69 4.3 92 19.4 102260 70
2003-09-17 09:29 51°9.07 2°32.7 3.4 115 19.4 102260 70
2003-09-17 09:30 51°9.07 2°32.7 3.6 149 19.4 102260 69
2003-09-17 09:31 51°9.08 2°32.7 3.1 136 19.4 102260 69
2003-09-17 09:32 51°9.09 2°32.69 3.6 125 19.5 102260 68
2003-09-17 09:33 51°9.09 2°32.69 3.5 107 19.6 102260 69
2003-09-17 09:34 51°9.09 2°32.7 4.2 86 19.6 102260 69
2003-09-17 09:35 51°9.09 2°32.71 3.8 62 19.6 102260 69
2003-09-17 09:36 51°9.07 2°32.74 4.2 43 19.6 102260 69
2003-09-17 09:37 51°9.03 2°32.77 4.2 31 19.5 102260 70
2003-09-17 09:38 51°9 2°32.79 4.3 23 19.5 102260 71
2003-09-17 09:39 51°8.96 2°32.79 4.2 21 19.5 102260 70
2003-09-17 09:40 51°8.92 2°32.77 4.8 350 19.6 102260 70
2003-09-17 09:41 51°8.87 2°32.67 4.9 310 19.7 102250 69
2003-09-17 09:42 51°8.9 2°32.51 0.8 261 19.8 102260 69
2003-09-17 09:43 51°8.99 2°32.5 2 85 19.9 102260 69
2003-09-17 09:44 51°9.09 2°32.57 2.9 60 19.8 102250 68
2003-09-17 09:45 51°9.18 2°32.67 3.7 63 19.8 102250 70
2003-09-17 09:46 51°9.27 2°32.81 4.3 51 19.6 102250 70
2003-09-17 09:47 51°9.36 2°32.97 4.5 53 19.5 102250 70
2003-09-17 09:48 51°9.46 2°33.13 4.7 46 19.5 102250 70
2003-09-17 09:49 51°9.56 2°33.29 4.7 57 19.4 102250 70
2003-09-17 09:50 51°9.66 2°33.46 4.4 55 19.4 102250 69
2003-09-17 09:51 51°9.76 2°33.63 4.5 43 19.5 102250 69
2003-09-17 09:52 51°9.89 2°33.84 5.5 35 19.6 102250 71
2003-09-17 09:53 51°10.02 2°34.06 6.2 37 19.5 102250 71
2003-09-17 09:54 51°10.16 2°34.31 6.6 31 19.6 102250 72
2003-09-17 09:55 51°10.29 2°34.56 6.6 35 19.6 102250 72
2003-09-17 09:56 51°10.42 2°34.82 6.6 40 19.6 102250 70
2003-09-17 09:57 51°10.56 2°35.06 6.8 37 19.6 102240 70
2003-09-17 09:58 51°10.69 2°35.31 6.3 35 19.6 102240 70
2003-09-17 09:59 51°10.84 2°35.54 6.9 32 19.7 102250 71
2003-09-17 10:00 51°10.98 2°35.78 6.8 35 19.6 102250 71
2003-09-17 10:01 51°11.11 2°36.02 6.6 41 19.6 102240 68
2003-09-17 10:02 51°11.26 2°36.28 6.6 31 19.7 102240 67
2003-09-17 10:03 51°11.4 2°36.52 6.6 34 19.8 102240 68
2003-09-17 10:04 51°11.55 2°36.77 6.7 34 19.8 102240 69
2003-09-17 10:05 51°11.69 2°37.02 6.3 32 19.8 102240 69
2003-09-17 10:06 51°11.82 2°37.27 6.8 29 19.9 102240 71
2003-09-17 10:07 51°11.96 2°37.51 6.8 33 19.8 102240 70
2003-09-17 10:08 51°12.1 2°37.76 6.5 37 19.8 102230 70
2003-09-17 10:09 51°12.24 2°38.01 6.7 32 19.8 102240 70
2003-09-17 10:10 51°12.38 2°38.27 6.7 32 19.8 102230 70
2003-09-17 10:11 51°12.51 2°38.52 6.6 37 19.7 102230 71
2003-09-17 10:12 51°12.65 2°38.77 6.7 34 19.8 102230 71
2003-09-17 10:13 51°12.79 2°39.02 6.7 38 19.7 102240 70
2003-09-17 10:14 51°12.93 2°39.27 6.8 37 19.7 102230 70
2003-09-17 10:15 51°13.07 2°39.52 6.6 32 19.7 102230 70
2003-09-17 10:16 51°13.21 2°39.76 6.9 35 19.8 102230 70
2003-09-17 10:17 51°13.34 2°40 6.1 37 19.8 102230 70
2003-09-17 10:18 51°13.48 2°40.24 6.2 34 19.8 102230 71
2003-09-17 10:19 51°13.63 2°40.45 5.8 29 19.9 102230 71
2003-09-17 10:20 51°13.79 2°40.67 5.5 32 19.9 102230 71
2003-09-17 10:21 51°13.93 2°40.87 4.1 41 19.9 102240 71
2003-09-17 10:22 51°14.03 2°40.96 1.9 82 19.9 102240 71
2003-09-17 10:23 51°14.09 2°40.97 1.5 162 19.8 102240 72
2003-09-17 10:24 51°14.14 2°40.97 2.5 110 19.9 102240 72
2003-09-17 10:25 51°14.15 2°40.98 3.2 100 19.9 102240 71
2003-09-17 10:26 51°14.15 2°40.98 3.7 88 19.9 102230 70
2003-09-17 10:27 51°14.14 2°41.01 3.3 81 20 102240 70
2003-09-17 10:28 51°14.13 2°41.03 3.2 77 20 102240 70
2003-09-17 10:29 51°14.12 2°41.05 3.4 98 20 102240 70
2003-09-17 10:30 51°14.12 2°41.06 2.9 117 20 102230 69
2003-09-17 10:31 51°14.13 2°41.06 3.1 115 20 102240 69
2003-09-17 10:32 51°14.13 2°41.07 3.1 111 20.1 102230 69
2003-09-17 10:33 51°14.13 2°41.08 3.3 105 20.2 102230 70
2003-09-17 10:34 51°14.14 2°41.09 3.3 105 20.2 102230 70
2003-09-17 10:35 51°14.14 2°41.1 3.1 119 20.2 102230 69
2003-09-17 10:36 51°14.15 2°41.1 2.9 126 20.2 102230 69
2003-09-17 10:37 51°14.15 2°41.09 2.9 121 20.3 102230 68
2003-09-17 10:38 51°14.15 2°41.08 3 113 20.3 102230 68
2003-09-17 10:39 51°14.15 2°41.07 3.1 109 20.4 102230 69
2003-09-17 10:40 51°14.14 2°41.06 2.9 108 20.4 102230 69
2003-09-17 10:41 51°14.13 2°41.05 2.8 105 20.5 102230 69
2003-09-17 10:42 51°14.13 2°41.04 2.7 99 20.5 102230 69
2003-09-17 10:43 51°14.12 2°41.03 2.6 83 20.5 102230 70
2003-09-17 10:44 51°14.1 2°41.03 3.6 63 20.4 102230 70
2003-09-17 10:45 51°14.08 2°41.03 3.4 42 20.2 102230 69
2003-09-17 10:46 51°14.05 2°41.02 3.7 27 20.2 102230 68
2003-09-17 10:47 51°14.02 2°41.02 3.7 27 20.3 102220 68
2003-09-17 10:48 51°13.98 2°41.01 3.9 24 20.3 102220 68
2003-09-17 10:49 51°13.94 2°40.99 3.3 10 20.5 102220 69
2003-09-17 10:50 51°13.88 2°41.02 5.5 33 20.5 102220 69
2003-09-17 10:51 51°13.85 2°41.2 5.8 37 20.4 102210 69
2003-09-17 10:52 51°13.91 2°41.48 7.1 32 20.3 102220 69
2003-09-17 10:53 51°13.97 2°41.78 7.1 32 20.3 102220 70
2003-09-17 10:54 51°14.01 2°42.09 6.6 31 20.3 102220 70
2003-09-17 10:55 51°14.06 2°42.4 7.2 33 20.3 102210 70
2003-09-17 10:56 51°14.11 2°42.72 7 33 20.3 102210 68
2003-09-17 10:57 51°14.15 2°43.03 7.6 35 20.4 102210 69
2003-09-17 10:58 51°14.21 2°43.34 7 35 20.3 102210 66
2003-09-17 10:59 51°14.27 2°43.64 7 37 20.4 102220 65
2003-09-17 11:00 51°14.33 2°43.95 6.6 34 20.5 102210 67
2003-09-17 11:01 51°14.39 2°44.26 6.7 35 20.4 102210 67
2003-09-17 11:02 51°14.46 2°44.57 6.8 31 20.5 102220 68
2003-09-17 11:03 51°14.52 2°44.88 6.3 32 20.4 102220 67
2003-09-17 11:04 51°14.58 2°45.19 6.6 32 20.4 102220 64
2003-09-17 11:05 51°14.65 2°45.5 6.5 30 20.5 102220 63
2003-09-17 11:06 51°14.71 2°45.82 6.4 31 20.7 102210 65
2003-09-17 11:07 51°14.77 2°46.13 6.7 32 20.7 102220 67
2003-09-17 11:08 51°14.83 2°46.44 6.9 33 20.7 102210 65
2003-09-17 11:09 51°14.9 2°46.76 6.8 32 20.7 102210 61
2003-09-17 11:10 51°14.96 2°47.07 6.7 31 20.9 102210 66
2003-09-17 11:11 51°15.03 2°47.39 6.7 32 20.9 102210 64
2003-09-17 11:12 51°15.09 2°47.71 6.6 27 20.9 102210 60
2003-09-17 11:13 51°15.15 2°48.02 7.1 29 21.1 102200 61
2003-09-17 11:14 51°15.21 2°48.34 6.9 27 21.2 102200 56
2003-09-17 11:15 51°15.27 2°48.65 6.7 22 21.4 102200 62
2003-09-17 11:16 51°15.29 2°48.98 7.1 22 21.4 102200 61
2003-09-17 11:17 51°15.3 2°49.31 7.1 27 21.4 102200 57
2003-09-17 11:18 51°15.3 2°49.64 7 26 21.6 102200 59
2003-09-17 11:19 51°15.31 2°49.97 7.1 26 21.6 102200 55
2003-09-17 11:20 51°15.32 2°50.3 6.9 23 21.8 102200 54
2003-09-17 11:21 51°15.32 2°50.62 6.6 19 21.9 102200 58
2003-09-17 11:22 51°15.32 2°50.95 6.5 18 21.8 102190 56
2003-09-17 11:23 51°15.32 2°51.28 6.5 20 21.7 102190 54
2003-09-17 11:24 51°15.29 2°51.61 6.8 22 21.9 102190 52
2003-09-17 11:25 51°15.23 2°51.93 7 21 22 102190 53
2003-09-17 11:26 51°15.14 2°52.24 6.8 14 22 102190 55
2003-09-17 11:27 51°15.04 2°52.54 7.5 20 21.9 102190 57
2003-09-17 11:28 51°14.94 2°52.84 8.2 29 21.9 102190 54
2003-09-17 11:29 51°14.85 2°53.15 7.5 29 22 102180 54
2003-09-17 11:30 51°14.76 2°53.46 7.8 29 22.1 102190 51
2003-09-17 11:31 51°14.69 2°53.77 6.6 34 22.3 102180 48
2003-09-17 11:32 51°14.62 2°54.08 5.9 27 22.4 102180 47
2003-09-17 11:33 51°14.56 2°54.38 5.9 31 22.6 102180 48
2003-09-17 11:34 51°14.5 2°54.68 6.7 34 22.6 102180 48
2003-09-17 11:35 51°14.41 2°54.97 7.6 29 22.6 102180 44
2003-09-17 11:36 51°14.3 2°55.21 6 30 22.9 102180 43
2003-09-17 11:37 51°14.2 2°55.36 5.4 8 23.1 102180 43
2003-09-17 11:38 51°14.09 2°55.45 7.2 7 23.3 102180 43
2003-09-17 11:39 51°13.98 2°55.53 7.4 12 23.5 102180 41
2003-09-17 11:40 51°13.87 2°55.6 5.8 12 23.6 102180 40
2003-09-17 11:41 51°13.77 2°55.69 6.2 27 23.7 102180 40
2003-09-17 11:42 51°13.69 2°55.83 4.8 33 23.7 102180 40
2003-09-17 11:43 51°13.64 2°55.96 3.8 43 23.7 102180 41
2003-09-17 11:44 51°13.61 2°56.05 4.2 33 23.8 102180 40
2003-09-17 11:45 51°13.6 2°56.1 4.4 54 23.9 102180 39
2003-09-17 11:46 51°13.6 2°56.11 2.5 50 23.9 102180 39
2003-09-17 11:48 51°13.6 2°56.11 2.6 71 23.9 102180 39
2003-09-17 11:49 51°13.6 2°56.11 1.4 108 24 102180 39
2003-09-17 11:50 51°13.6 2°56.11 0.7 120 24 102180 39